sensor_id;sensor_type;location;lat;lon;timestamp;P1;durP1;ratioP1;P2;durP2;ratioP2
43118;SDS011;28729;49.838;8.650;2022-10-10T00:02:45;8.13;;;2.67;;
43118;SDS011;28729;49.838;8.650;2022-10-10T00:06:47;7.40;;;2.88;;
43118;SDS011;28729;49.838;8.650;2022-10-10T00:10:49;6.57;;;2.70;;
43118;SDS011;28729;49.838;8.650;2022-10-10T00:14:50;6.70;;;3.20;;
43118;SDS011;28729;49.838;8.650;2022-10-10T00:18:52;6.35;;;2.63;;
43118;SDS011;28729;49.838;8.650;2022-10-10T00:22:53;6.15;;;2.85;;
43118;SDS011;28729;49.838;8.650;2022-10-10T00:26:55;7.60;;;2.58;;
43118;SDS011;28729;49.838;8.650;2022-10-10T00:30:57;10.90;;;3.15;;
43118;SDS011;28729;49.838;8.650;2022-10-10T00:34:58;5.60;;;2.65;;
43118;SDS011;28729;49.838;8.650;2022-10-10T00:39:00;5.18;;;2.72;;
43118;SDS011;28729;49.838;8.650;2022-10-10T00:43:02;4.63;;;2.47;;
43118;SDS011;28729;49.838;8.650;2022-10-10T00:47:03;8.30;;;2.88;;
43118;SDS011;28729;49.838;8.650;2022-10-10T00:55:15;7.30;;;2.70;;
43118;SDS011;28729;49.838;8.650;2022-10-10T00:59:17;5.40;;;2.83;;
43118;SDS011;28729;49.838;8.650;2022-10-10T01:03:20;5.20;;;3.10;;
43118;SDS011;28729;49.838;8.650;2022-10-10T01:07:23;7.15;;;3.30;;
43118;SDS011;28729;49.838;8.650;2022-10-10T01:24:30;10.13;;;3.30;;
43118;SDS011;28729;49.838;8.650;2022-10-10T01:28:44;5.30;;;2.67;;
43118;SDS011;28729;49.838;8.650;2022-10-10T01:32:52;7.22;;;2.80;;
43118;SDS011;28729;49.838;8.650;2022-10-10T01:37:03;5.78;;;3.15;;
43118;SDS011;28729;49.838;8.650;2022-10-10T01:45:22;7.65;;;3.40;;
43118;SDS011;28729;49.838;8.650;2022-10-10T01:49:26;5.55;;;3.10;;
43118;SDS011;28729;49.838;8.650;2022-10-10T02:10:55;9.07;;;3.58;;
43118;SDS011;28729;49.838;8.650;2022-10-10T02:15:05;7.35;;;3.70;;
43118;SDS011;28729;49.838;8.650;2022-10-10T02:19:11;8.98;;;3.63;;
43118;SDS011;28729;49.838;8.650;2022-10-10T02:23:18;6.00;;;3.30;;
43118;SDS011;28729;49.838;8.650;2022-10-10T02:27:27;9.00;;;3.60;;
43118;SDS011;28729;49.838;8.650;2022-10-10T02:35:55;5.88;;;3.60;;
43118;SDS011;28729;49.838;8.650;2022-10-10T02:39:59;9.75;;;3.22;;
43118;SDS011;28729;49.838;8.650;2022-10-10T02:44:03;7.75;;;3.45;;
43118;SDS011;28729;49.838;8.650;2022-10-10T02:48:05;9.57;;;3.75;;
43118;SDS011;28729;49.838;8.650;2022-10-10T02:52:07;8.05;;;3.75;;
43118;SDS011;28729;49.838;8.650;2022-10-10T02:56:09;6.82;;;3.55;;
43118;SDS011;28729;49.838;8.650;2022-10-10T03:00:11;8.85;;;3.47;;
43118;SDS011;28729;49.838;8.650;2022-10-10T03:04:13;6.87;;;3.40;;
43118;SDS011;28729;49.838;8.650;2022-10-10T03:08:16;8.50;;;3.60;;
43118;SDS011;28729;49.838;8.650;2022-10-10T03:12:17;8.50;;;3.80;;
43118;SDS011;28729;49.838;8.650;2022-10-10T03:16:19;8.35;;;3.67;;
43118;SDS011;28729;49.838;8.650;2022-10-10T03:20:21;8.25;;;3.50;;
43118;SDS011;28729;49.838;8.650;2022-10-10T03:24:22;7.22;;;3.55;;
43118;SDS011;28729;49.838;8.650;2022-10-10T03:28:24;6.50;;;3.53;;
43118;SDS011;28729;49.838;8.650;2022-10-10T03:32:26;6.13;;;3.60;;
43118;SDS011;28729;49.838;8.650;2022-10-10T03:36:28;8.40;;;4.38;;
43118;SDS011;28729;49.838;8.650;2022-10-10T03:40:32;9.90;;;4.05;;
43118;SDS011;28729;49.838;8.650;2022-10-10T03:44:34;7.30;;;4.10;;
43118;SDS011;28729;49.838;8.650;2022-10-10T03:48:35;7.07;;;4.00;;
43118;SDS011;28729;49.838;8.650;2022-10-10T03:52:37;7.65;;;4.13;;
43118;SDS011;28729;49.838;8.650;2022-10-10T03:56:39;8.43;;;4.10;;
43118;SDS011;28729;49.838;8.650;2022-10-10T04:00:40;7.93;;;3.63;;
43118;SDS011;28729;49.838;8.650;2022-10-10T04:04:42;9.35;;;4.35;;
43118;SDS011;28729;49.838;8.650;2022-10-10T04:08:44;7.85;;;3.67;;
43118;SDS011;28729;49.838;8.650;2022-10-10T04:12:45;7.72;;;3.92;;
43118;SDS011;28729;49.838;8.650;2022-10-10T04:16:47;6.00;;;3.88;;
43118;SDS011;28729;49.838;8.650;2022-10-10T04:20:50;7.20;;;4.20;;
43118;SDS011;28729;49.838;8.650;2022-10-10T04:24:52;8.63;;;4.25;;
43118;SDS011;28729;49.838;8.650;2022-10-10T04:28:53;9.02;;;4.13;;
43118;SDS011;28729;49.838;8.650;2022-10-10T04:32:55;8.05;;;3.95;;
43118;SDS011;28729;49.838;8.650;2022-10-10T04:36:56;6.40;;;4.57;;
43118;SDS011;28729;49.838;8.650;2022-10-10T04:40:58;9.23;;;3.90;;
43118;SDS011;28729;49.838;8.650;2022-10-10T04:45:00;7.78;;;3.92;;
43118;SDS011;28729;49.838;8.650;2022-10-10T04:49:01;7.93;;;3.53;;
43118;SDS011;28729;49.838;8.650;2022-10-10T04:53:03;7.15;;;3.55;;
43118;SDS011;28729;49.838;8.650;2022-10-10T04:57:05;10.18;;;4.00;;
43118;SDS011;28729;49.838;8.650;2022-10-10T05:01:07;6.27;;;3.47;;
43118;SDS011;28729;49.838;8.650;2022-10-10T05:05:08;7.60;;;4.18;;
43118;SDS011;28729;49.838;8.650;2022-10-10T05:13:14;10.32;;;3.85;;
43118;SDS011;28729;49.838;8.650;2022-10-10T05:17:17;9.30;;;4.18;;
43118;SDS011;28729;49.838;8.650;2022-10-10T05:21:19;9.60;;;4.22;;
43118;SDS011;28729;49.838;8.650;2022-10-10T05:25:21;10.45;;;4.90;;
43118;SDS011;28729;49.838;8.650;2022-10-10T05:29:22;8.23;;;4.78;;
43118;SDS011;28729;49.838;8.650;2022-10-10T05:33:24;13.13;;;4.82;;
43118;SDS011;28729;49.838;8.650;2022-10-10T05:37:26;8.18;;;4.88;;
43118;SDS011;28729;49.838;8.650;2022-10-10T05:41:27;9.05;;;4.95;;
43118;SDS011;28729;49.838;8.650;2022-10-10T05:45:29;9.63;;;5.22;;
43118;SDS011;28729;49.838;8.650;2022-10-10T05:49:31;9.98;;;5.43;;
43118;SDS011;28729;49.838;8.650;2022-10-10T05:53:32;11.73;;;5.68;;
43118;SDS011;28729;49.838;8.650;2022-10-10T05:57:34;11.13;;;6.07;;
43118;SDS011;28729;49.838;8.650;2022-10-10T06:01:36;10.43;;;5.60;;
43118;SDS011;28729;49.838;8.650;2022-10-10T06:05:37;9.95;;;5.30;;
43118;SDS011;28729;49.838;8.650;2022-10-10T06:09:39;10.52;;;5.30;;
43118;SDS011;28729;49.838;8.650;2022-10-10T06:13:41;10.55;;;5.90;;
43118;SDS011;28729;49.838;8.650;2022-10-10T06:17:43;11.05;;;6.07;;
43118;SDS011;28729;49.838;8.650;2022-10-10T06:21:45;10.32;;;6.13;;
43118;SDS011;28729;49.838;8.650;2022-10-10T06:25:50;15.60;;;7.18;;
43118;SDS011;28729;49.838;8.650;2022-10-10T06:29:52;11.00;;;6.18;;
43118;SDS011;28729;49.838;8.650;2022-10-10T06:33:53;16.42;;;8.70;;
43118;SDS011;28729;49.838;8.650;2022-10-10T06:37:55;21.35;;;12.40;;
43118;SDS011;28729;49.838;8.650;2022-10-10T06:41:56;16.38;;;9.35;;
43118;SDS011;28729;49.838;8.650;2022-10-10T06:45:59;23.77;;;10.37;;
43118;SDS011;28729;49.838;8.650;2022-10-10T06:50:01;18.93;;;10.03;;
43118;SDS011;28729;49.838;8.650;2022-10-10T06:54:03;11.88;;;7.30;;
43118;SDS011;28729;49.838;8.650;2022-10-10T06:58:05;13.73;;;6.47;;
43118;SDS011;28729;49.838;8.650;2022-10-10T07:02:10;11.70;;;6.20;;
43118;SDS011;28729;49.838;8.650;2022-10-10T07:06:14;11.05;;;5.53;;
43118;SDS011;28729;49.838;8.650;2022-10-10T07:10:16;10.98;;;5.82;;
43118;SDS011;28729;49.838;8.650;2022-10-10T07:14:36;15.52;;;6.63;;
43118;SDS011;28729;49.838;8.650;2022-10-10T07:18:37;14.30;;;6.75;;
43118;SDS011;28729;49.838;8.650;2022-10-10T07:22:39;14.10;;;7.38;;
43118;SDS011;28729;49.838;8.650;2022-10-10T07:26:41;14.20;;;6.85;;
43118;SDS011;28729;49.838;8.650;2022-10-10T07:30:43;14.55;;;6.93;;
43118;SDS011;28729;49.838;8.650;2022-10-10T07:34:46;10.93;;;6.15;;
43118;SDS011;28729;49.838;8.650;2022-10-10T07:38:48;11.00;;;6.60;;
43118;SDS011;28729;49.838;8.650;2022-10-10T07:42:52;10.75;;;5.78;;
43118;SDS011;28729;49.838;8.650;2022-10-10T07:46:57;9.95;;;6.88;;
43118;SDS011;28729;49.838;8.650;2022-10-10T08:00:09;12.20;;;6.38;;
43118;SDS011;28729;49.838;8.650;2022-10-10T08:04:14;9.52;;;6.32;;
43118;SDS011;28729;49.838;8.650;2022-10-10T08:08:16;11.63;;;5.90;;
43118;SDS011;28729;49.838;8.650;2022-10-10T08:12:22;12.23;;;7.03;;
43118;SDS011;28729;49.838;8.650;2022-10-10T08:16:25;9.57;;;6.32;;
43118;SDS011;28729;49.838;8.650;2022-10-10T08:20:40;12.80;;;6.70;;
43118;SDS011;28729;49.838;8.650;2022-10-10T08:24:42;13.23;;;6.55;;
43118;SDS011;28729;49.838;8.650;2022-10-10T08:28:43;13.70;;;6.93;;
43118;SDS011;28729;49.838;8.650;2022-10-10T08:37:02;10.25;;;6.82;;
43118;SDS011;28729;49.838;8.650;2022-10-10T08:41:08;11.20;;;7.13;;
43118;SDS011;28729;49.838;8.650;2022-10-10T08:54:56;13.07;;;7.45;;
43118;SDS011;28729;49.838;8.650;2022-10-10T08:59:05;12.80;;;6.85;;
43118;SDS011;28729;49.838;8.650;2022-10-10T09:03:19;10.32;;;6.55;;
43118;SDS011;28729;49.838;8.650;2022-10-10T09:07:53;13.55;;;7.10;;
43118;SDS011;28729;49.838;8.650;2022-10-10T09:12:32;12.05;;;6.63;;
43118;SDS011;28729;49.838;8.650;2022-10-10T09:16:43;9.52;;;6.63;;
43118;SDS011;28729;49.838;8.650;2022-10-10T09:21:10;13.88;;;6.60;;
43118;SDS011;28729;49.838;8.650;2022-10-10T09:29:58;10.52;;;6.53;;
43118;SDS011;28729;49.838;8.650;2022-10-10T09:44:14;11.90;;;5.97;;
43118;SDS011;28729;49.838;8.650;2022-10-10T09:48:39;12.55;;;6.63;;
43118;SDS011;28729;49.838;8.650;2022-10-10T09:52:43;11.55;;;6.60;;
43118;SDS011;28729;49.838;8.650;2022-10-10T09:56:50;9.85;;;5.50;;
43118;SDS011;28729;49.838;8.650;2022-10-10T10:01:08;10.07;;;6.30;;
43118;SDS011;28729;49.838;8.650;2022-10-10T10:10:30;11.93;;;6.43;;
43118;SDS011;28729;49.838;8.650;2022-10-10T10:14:36;10.23;;;6.43;;
43118;SDS011;28729;49.838;8.650;2022-10-10T10:22:45;11.50;;;6.32;;
43118;SDS011;28729;49.838;8.650;2022-10-10T10:26:50;13.40;;;6.90;;
43118;SDS011;28729;49.838;8.650;2022-10-10T10:36:22;8.95;;;5.93;;
43118;SDS011;28729;49.838;8.650;2022-10-10T10:40:38;12.27;;;6.40;;
43118;SDS011;28729;49.838;8.650;2022-10-10T10:48:58;9.35;;;6.25;;
43118;SDS011;28729;49.838;8.650;2022-10-10T11:10:31;10.85;;;5.53;;
43118;SDS011;28729;49.838;8.650;2022-10-10T11:19:06;11.43;;;5.47;;
43118;SDS011;28729;49.838;8.650;2022-10-10T11:23:18;8.85;;;5.47;;
43118;SDS011;28729;49.838;8.650;2022-10-10T11:27:36;12.35;;;6.13;;
43118;SDS011;28729;49.838;8.650;2022-10-10T11:31:46;10.55;;;4.93;;
43118;SDS011;28729;49.838;8.650;2022-10-10T11:36:43;11.38;;;5.63;;
43118;SDS011;28729;49.838;8.650;2022-10-10T11:45:22;13.55;;;5.22;;
43118;SDS011;28729;49.838;8.650;2022-10-10T11:59:43;13.80;;;4.88;;
43118;SDS011;28729;49.838;8.650;2022-10-10T12:03:50;8.98;;;4.60;;
43118;SDS011;28729;49.838;8.650;2022-10-10T12:12:23;8.93;;;4.90;;
43118;SDS011;28729;49.838;8.650;2022-10-10T12:16:35;8.85;;;4.90;;
43118;SDS011;28729;49.838;8.650;2022-10-10T12:20:41;9.95;;;4.60;;
43118;SDS011;28729;49.838;8.650;2022-10-10T12:34:03;12.23;;;4.47;;
43118;SDS011;28729;49.838;8.650;2022-10-10T12:43:42;9.05;;;4.32;;
43118;SDS011;28729;49.838;8.650;2022-10-10T12:48:16;9.73;;;4.35;;
43118;SDS011;28729;49.838;8.650;2022-10-10T12:52:43;10.05;;;4.65;;
43118;SDS011;28729;49.838;8.650;2022-10-10T12:56:49;8.07;;;4.82;;
43118;SDS011;28729;49.838;8.650;2022-10-10T13:00:56;9.82;;;4.28;;
43118;SDS011;28729;49.838;8.650;2022-10-10T13:05:00;9.32;;;4.40;;
43118;SDS011;28729;49.838;8.650;2022-10-10T13:09:07;8.68;;;4.80;;
43118;SDS011;28729;49.838;8.650;2022-10-10T13:21:32;9.68;;;3.75;;
43118;SDS011;28729;49.838;8.650;2022-10-10T13:25:35;11.38;;;4.80;;
43118;SDS011;28729;49.838;8.650;2022-10-10T13:29:52;8.93;;;4.05;;
43118;SDS011;28729;49.838;8.650;2022-10-10T13:43:02;12.75;;;4.10;;
43118;SDS011;28729;49.838;8.650;2022-10-10T13:52:01;12.57;;;4.05;;
43118;SDS011;28729;49.838;8.650;2022-10-10T14:00:28;9.05;;;4.03;;
43118;SDS011;28729;49.838;8.650;2022-10-10T14:04:37;17.85;;;4.22;;
43118;SDS011;28729;49.838;8.650;2022-10-10T14:08:47;9.50;;;4.05;;
43118;SDS011;28729;49.838;8.650;2022-10-10T14:12:56;9.50;;;3.50;;
43118;SDS011;28729;49.838;8.650;2022-10-10T14:17:03;16.67;;;4.28;;
43118;SDS011;28729;49.838;8.650;2022-10-10T14:21:18;12.82;;;3.83;;
43118;SDS011;28729;49.838;8.650;2022-10-10T14:29:22;12.77;;;4.45;;
43118;SDS011;28729;49.838;8.650;2022-10-10T14:33:24;16.35;;;4.53;;
43118;SDS011;28729;49.838;8.650;2022-10-10T14:37:27;11.77;;;3.75;;
43118;SDS011;28729;49.838;8.650;2022-10-10T14:41:29;12.18;;;3.40;;
43118;SDS011;28729;49.838;8.650;2022-10-10T14:45:31;14.05;;;4.45;;
43118;SDS011;28729;49.838;8.650;2022-10-10T14:49:32;12.97;;;3.87;;
43118;SDS011;28729;49.838;8.650;2022-10-10T14:53:36;8.10;;;3.90;;
43118;SDS011;28729;49.838;8.650;2022-10-10T14:57:37;11.53;;;4.27;;
43118;SDS011;28729;49.838;8.650;2022-10-10T15:01:40;9.63;;;3.83;;
43118;SDS011;28729;49.838;8.650;2022-10-10T15:05:41;12.63;;;3.27;;
43118;SDS011;28729;49.838;8.650;2022-10-10T15:09:43;10.43;;;4.45;;
43118;SDS011;28729;49.838;8.650;2022-10-10T15:14:06;12.50;;;4.50;;
43118;SDS011;28729;49.838;8.650;2022-10-10T15:18:08;18.90;;;4.40;;
43118;SDS011;28729;49.838;8.650;2022-10-10T15:22:40;10.27;;;4.03;;
43118;SDS011;28729;49.838;8.650;2022-10-10T15:26:43;14.23;;;4.35;;
43118;SDS011;28729;49.838;8.650;2022-10-10T15:30:45;12.10;;;3.95;;
43118;SDS011;28729;49.838;8.650;2022-10-10T15:34:47;11.32;;;4.03;;
43118;SDS011;28729;49.838;8.650;2022-10-10T15:38:50;11.00;;;4.43;;
43118;SDS011;28729;49.838;8.650;2022-10-10T15:42:52;9.77;;;4.03;;
43118;SDS011;28729;49.838;8.650;2022-10-10T15:46:53;12.63;;;4.00;;
43118;SDS011;28729;49.838;8.650;2022-10-10T15:50:58;10.23;;;3.97;;
43118;SDS011;28729;49.838;8.650;2022-10-10T15:55:00;11.35;;;3.95;;
43118;SDS011;28729;49.838;8.650;2022-10-10T15:59:02;16.40;;;4.57;;
43118;SDS011;28729;49.838;8.650;2022-10-10T16:03:04;10.30;;;4.20;;
43118;SDS011;28729;49.838;8.650;2022-10-10T16:07:07;13.57;;;4.20;;
43118;SDS011;28729;49.838;8.650;2022-10-10T16:15:31;13.57;;;4.75;;
43118;SDS011;28729;49.838;8.650;2022-10-10T16:19:33;14.47;;;4.57;;
43118;SDS011;28729;49.838;8.650;2022-10-10T16:23:35;12.98;;;4.63;;
43118;SDS011;28729;49.838;8.650;2022-10-10T16:27:37;10.27;;;4.50;;
43118;SDS011;28729;49.838;8.650;2022-10-10T16:31:39;15.02;;;4.38;;
43118;SDS011;28729;49.838;8.650;2022-10-10T16:40:40;11.40;;;4.32;;
43118;SDS011;28729;49.838;8.650;2022-10-10T16:44:45;26.13;;;5.90;;
43118;SDS011;28729;49.838;8.650;2022-10-10T16:48:49;10.52;;;4.70;;
43118;SDS011;28729;49.838;8.650;2022-10-10T16:53:03;13.05;;;4.50;;
43118;SDS011;28729;49.838;8.650;2022-10-10T16:57:05;16.50;;;4.45;;
43118;SDS011;28729;49.838;8.650;2022-10-10T17:01:11;11.18;;;4.50;;
43118;SDS011;28729;49.838;8.650;2022-10-10T17:05:18;10.73;;;4.18;;
43118;SDS011;28729;49.838;8.650;2022-10-10T17:09:19;17.63;;;5.15;;
43118;SDS011;28729;49.838;8.650;2022-10-10T17:13:25;15.98;;;5.00;;
43118;SDS011;28729;49.838;8.650;2022-10-10T17:17:27;9.75;;;4.18;;
43118;SDS011;28729;49.838;8.650;2022-10-10T17:21:31;12.52;;;3.88;;
43118;SDS011;28729;49.838;8.650;2022-10-10T17:25:33;12.77;;;4.40;;
43118;SDS011;28729;49.838;8.650;2022-10-10T17:29:52;9.82;;;4.40;;
43118;SDS011;28729;49.838;8.650;2022-10-10T17:33:55;12.90;;;4.90;;
43118;SDS011;28729;49.838;8.650;2022-10-10T17:37:57;15.48;;;5.65;;
43118;SDS011;28729;49.838;8.650;2022-10-10T17:42:16;12.10;;;4.38;;
43118;SDS011;28729;49.838;8.650;2022-10-10T17:46:21;13.57;;;5.50;;
43118;SDS011;28729;49.838;8.650;2022-10-10T17:50:41;16.83;;;6.60;;
43118;SDS011;28729;49.838;8.650;2022-10-10T17:54:43;13.43;;;6.38;;
43118;SDS011;28729;49.838;8.650;2022-10-10T17:58:45;14.77;;;6.72;;
43118;SDS011;28729;49.838;8.650;2022-10-10T18:07:01;15.27;;;6.38;;
43118;SDS011;28729;49.838;8.650;2022-10-10T18:11:26;16.13;;;6.43;;
43118;SDS011;28729;49.838;8.650;2022-10-10T18:15:38;13.70;;;6.28;;
43118;SDS011;28729;49.838;8.650;2022-10-10T18:19:42;19.98;;;7.75;;
43118;SDS011;28729;49.838;8.650;2022-10-10T18:23:46;17.08;;;8.10;;
43118;SDS011;28729;49.838;8.650;2022-10-10T18:32:12;20.35;;;7.88;;
43118;SDS011;28729;49.838;8.650;2022-10-10T18:36:14;16.73;;;7.35;;
43118;SDS011;28729;49.838;8.650;2022-10-10T18:40:18;22.58;;;8.57;;
43118;SDS011;28729;49.838;8.650;2022-10-10T18:44:22;18.58;;;8.05;;
43118;SDS011;28729;49.838;8.650;2022-10-10T18:48:30;23.73;;;9.20;;
43118;SDS011;28729;49.838;8.650;2022-10-10T18:52:39;23.63;;;9.57;;
43118;SDS011;28729;49.838;8.650;2022-10-10T18:56:49;21.05;;;9.27;;
43118;SDS011;28729;49.838;8.650;2022-10-10T19:01:10;17.13;;;9.18;;
43118;SDS011;28729;49.838;8.650;2022-10-10T19:05:18;21.48;;;9.55;;
43118;SDS011;28729;49.838;8.650;2022-10-10T19:09:20;22.85;;;9.30;;
43118;SDS011;28729;49.838;8.650;2022-10-10T19:13:22;21.63;;;9.38;;
43118;SDS011;28729;49.838;8.650;2022-10-10T19:17:24;23.48;;;8.93;;
43118;SDS011;28729;49.838;8.650;2022-10-10T19:21:28;21.30;;;9.38;;
43118;SDS011;28729;49.838;8.650;2022-10-10T19:25:35;21.45;;;10.32;;
43118;SDS011;28729;49.838;8.650;2022-10-10T19:29:40;26.52;;;12.00;;
43118;SDS011;28729;49.838;8.650;2022-10-10T19:33:42;24.65;;;11.18;;
43118;SDS011;28729;49.838;8.650;2022-10-10T19:41:46;32.13;;;11.20;;
43118;SDS011;28729;49.838;8.650;2022-10-10T19:45:48;24.77;;;9.93;;
43118;SDS011;28729;49.838;8.650;2022-10-10T19:49:53;20.25;;;10.02;;
43118;SDS011;28729;49.838;8.650;2022-10-10T19:53:55;25.13;;;9.52;;
43118;SDS011;28729;49.838;8.650;2022-10-10T19:57:57;23.00;;;9.98;;
43118;SDS011;28729;49.838;8.650;2022-10-10T20:01:59;24.23;;;9.30;;
43118;SDS011;28729;49.838;8.650;2022-10-10T20:06:01;23.70;;;9.60;;
43118;SDS011;28729;49.838;8.650;2022-10-10T20:10:03;19.85;;;9.30;;
43118;SDS011;28729;49.838;8.650;2022-10-10T20:14:08;24.33;;;10.55;;
43118;SDS011;28729;49.838;8.650;2022-10-10T20:18:10;20.85;;;10.13;;
43118;SDS011;28729;49.838;8.650;2022-10-10T20:22:14;25.48;;;9.25;;
43118;SDS011;28729;49.838;8.650;2022-10-10T20:26:18;24.48;;;10.00;;
43118;SDS011;28729;49.838;8.650;2022-10-10T20:30:24;25.45;;;9.98;;
43118;SDS011;28729;49.838;8.650;2022-10-10T20:34:26;28.38;;;10.75;;
43118;SDS011;28729;49.838;8.650;2022-10-10T20:38:29;27.33;;;10.80;;
43118;SDS011;28729;49.838;8.650;2022-10-10T20:42:30;20.77;;;10.30;;
43118;SDS011;28729;49.838;8.650;2022-10-10T20:46:33;25.25;;;10.10;;
43118;SDS011;28729;49.838;8.650;2022-10-10T20:50:36;27.25;;;10.02;;
43118;SDS011;28729;49.838;8.650;2022-10-10T20:54:39;22.10;;;10.50;;
43118;SDS011;28729;49.838;8.650;2022-10-10T20:58:40;28.63;;;10.65;;
43118;SDS011;28729;49.838;8.650;2022-10-10T21:02:43;30.02;;;11.00;;
43118;SDS011;28729;49.838;8.650;2022-10-10T21:06:45;23.60;;;10.35;;
43118;SDS011;28729;49.838;8.650;2022-10-10T21:10:47;25.85;;;12.10;;
43118;SDS011;28729;49.838;8.650;2022-10-10T21:14:49;29.58;;;11.85;;
43118;SDS011;28729;49.838;8.650;2022-10-10T21:18:50;24.45;;;10.45;;
43118;SDS011;28729;49.838;8.650;2022-10-10T21:22:58;29.27;;;11.30;;
43118;SDS011;28729;49.838;8.650;2022-10-10T21:27:00;28.17;;;11.40;;
43118;SDS011;28729;49.838;8.650;2022-10-10T21:31:03;24.05;;;11.55;;
43118;SDS011;28729;49.838;8.650;2022-10-10T21:35:05;22.33;;;10.07;;
43118;SDS011;28729;49.838;8.650;2022-10-10T21:39:07;27.33;;;11.53;;
43118;SDS011;28729;49.838;8.650;2022-10-10T21:43:11;29.50;;;10.93;;
43118;SDS011;28729;49.838;8.650;2022-10-10T21:47:13;28.38;;;11.75;;
43118;SDS011;28729;49.838;8.650;2022-10-10T21:51:17;26.25;;;10.32;;
43118;SDS011;28729;49.838;8.650;2022-10-10T21:55:19;33.50;;;11.48;;
43118;SDS011;28729;49.838;8.650;2022-10-10T21:59:21;36.10;;;11.95;;
43118;SDS011;28729;49.838;8.650;2022-10-10T22:03:22;33.63;;;12.30;;
43118;SDS011;28729;49.838;8.650;2022-10-10T22:07:24;38.75;;;12.50;;
43118;SDS011;28729;49.838;8.650;2022-10-10T22:11:26;28.05;;;11.52;;
43118;SDS011;28729;49.838;8.650;2022-10-10T22:15:29;38.47;;;13.80;;
43118;SDS011;28729;49.838;8.650;2022-10-10T22:19:31;28.20;;;12.00;;
43118;SDS011;28729;49.838;8.650;2022-10-10T22:23:32;34.55;;;13.45;;
43118;SDS011;28729;49.838;8.650;2022-10-10T22:27:34;30.40;;;12.32;;
43118;SDS011;28729;49.838;8.650;2022-10-10T22:31:36;28.77;;;12.23;;
43118;SDS011;28729;49.838;8.650;2022-10-10T22:35:38;37.15;;;14.48;;
43118;SDS011;28729;49.838;8.650;2022-10-10T22:39:40;56.42;;;15.95;;
43118;SDS011;28729;49.838;8.650;2022-10-10T22:43:42;30.50;;;14.40;;
43118;SDS011;28729;49.838;8.650;2022-10-10T22:47:43;44.88;;;16.75;;
43118;SDS011;28729;49.838;8.650;2022-10-10T22:51:45;39.45;;;15.93;;
43118;SDS011;28729;49.838;8.650;2022-10-10T22:55:47;35.83;;;16.02;;
43118;SDS011;28729;49.838;8.650;2022-10-10T22:59:48;42.53;;;16.40;;
43118;SDS011;28729;49.838;8.650;2022-10-10T23:03:54;36.73;;;15.80;;
43118;SDS011;28729;49.838;8.650;2022-10-10T23:07:57;45.45;;;16.60;;
43118;SDS011;28729;49.838;8.650;2022-10-10T23:11:58;44.58;;;18.10;;
43118;SDS011;28729;49.838;8.650;2022-10-10T23:16:00;40.95;;;16.70;;
43118;SDS011;28729;49.838;8.650;2022-10-10T23:20:03;40.95;;;17.00;;
43118;SDS011;28729;49.838;8.650;2022-10-10T23:24:05;36.97;;;16.23;;
43118;SDS011;28729;49.838;8.650;2022-10-10T23:28:07;47.05;;;17.52;;
43118;SDS011;28729;49.838;8.650;2022-10-10T23:32:09;47.72;;;18.77;;
43118;SDS011;28729;49.838;8.650;2022-10-10T23:36:11;41.40;;;17.17;;
43118;SDS011;28729;49.838;8.650;2022-10-10T23:40:14;52.67;;;18.98;;
43118;SDS011;28729;49.838;8.650;2022-10-10T23:44:16;45.53;;;17.57;;
43118;SDS011;28729;49.838;8.650;2022-10-10T23:48:18;41.35;;;16.90;;
43118;SDS011;28729;49.838;8.650;2022-10-10T23:52:20;47.27;;;17.93;;
43118;SDS011;28729;49.838;8.650;2022-10-10T23:56:22;41.50;;;17.70;;
